Los Saenz, Texas
Current Conditions -  °F | °C
As of 9:35 AM on Friday 24 Oct 2014 (Local Time) from KAPY Reporting Station
Clear Clear  
Wind Chill: 73°   Ceiling: Unl
Heat Index: 73°   Visibility: 10mi
Dew Point: 64°   Wind: 5mph
Humidity: 73%   Direction: 150°SSE
Pressure: 30.16"   Gusts: NA
Location:  26.5818°N, 98.985°W
Report Text: KAPY 241435Z AUTO 15004KT 10SM CLR 22/17 A3016 RMK AO2 T02270176
Loading
Personal Weather Stations






























Interactive Weather Map
Tropical Storm Tracking
New forecast layout! Learn more

10-Day Weather Forecast

Advertisements
Track Severe Weather on mobile